Kezdőlap
METAR-TAF:

METAR-TAF

Repülőterek :

RAF

Tain, Skócia

földrajzi szélesség: 57-49N, földrajzi hosszúság: 003-58W, magasság: 4 m

Jelenlegi meteorológiai megfigyelések

A jelentés 22 perccel ezelõtt készült, 09:50 UTC
Keleti szél 6 kt
Hőmérséklet 14°C
Páratartalom 82%
Légköri nyomás 992 hPa
Látótávolság 10 km, vagy több
Kevés felhő 900 lábon
Kevés felhő 3000 lábon
Szakadozott felhőzet 8000 lábon

METAR: EGQA 140950Z 09006KT 9999 FEW009 FEW030 BKN080 14/11 Q0992 RMK BLU

Idő: 11:12 (10:12 UTC)


TAF: hiányzik

Meteorológiai megfigyelések és előrejelzések több, mint 4000 repülőtéren (METAR és TAF jelentéseket).

A térképen piros és sárga pontok jelzik az elérhető meteorológiai állomásokat.

Mozgassa az egeret a pont fölött, hogy megjelenjen az állomás neve.

Azután kattintson az időjárási megfigyelések és előrejelzések megtekintéséhez.

A térkép megváltoztatása: kattintson a fekete keresztel jelölt zöld gombra ráközelítéshez, a vonallal jelölt zöld gombra távolításhoz, vagy a zöld nyilakra a szomszédos térképek eléréséhez.


METAR-TAF: